Buffalo, Oklahoma
Current Conditions -  °F | °C
As of 12:35 PM on Saturday 25 Oct 2014 (Local Time) from KWWR Reporting Station
Clear Clear  
Wind Chill: 86°   Ceiling: Unl
Heat Index: 86°   Visibility: 10mi
Dew Point: 45°   Wind: 8mph
Humidity: 23%   Direction: 230°SW
Pressure: 30.12"   Gusts: NA
Location:  36.84°N, 99.63°W
Report Text: KWWR 251735Z AUTO 23007KT 10SM CLR 30/07 A3012 RMK AO2
Loading
Personal Weather Stations






























Interactive Weather Map
Tropical Storm Tracking
New forecast layout! Learn more

10-Day Weather Forecast

Advertisements
Track Severe Weather on mobile